sensor_id;sensor_type;location;lat;lon;timestamp;pressure;altitude;pressure_sealevel;temperature
19568;BMP280;9930;49.240;8.548;2023-04-24T00:00:20;99401.66;;;17.55
19568;BMP280;9930;49.240;8.548;2023-04-24T00:02:50;99384.59;;;17.39
19568;BMP280;9930;49.240;8.548;2023-04-24T00:05:17;99403.44;;;17.44
19568;BMP280;9930;49.240;8.548;2023-04-24T00:07:45;99414.59;;;17.46
19568;BMP280;9930;49.240;8.548;2023-04-24T00:10:11;99424.06;;;17.42
19568;BMP280;9930;49.240;8.548;2023-04-24T00:12:38;99412.91;;;17.42
19568;BMP280;9930;49.240;8.548;2023-04-24T00:15:05;99406.91;;;17.40
19568;BMP280;9930;49.240;8.548;2023-04-24T00:17:31;99400.91;;;17.41
19568;BMP280;9930;49.240;8.548;2023-04-24T00:19:57;99388.91;;;17.32
19568;BMP280;9930;49.240;8.548;2023-04-24T00:22:27;99386.34;;;17.32
19568;BMP280;9930;49.240;8.548;2023-04-24T00:24:54;99383.78;;;17.31
19568;BMP280;9930;49.240;8.548;2023-04-24T00:27:22;99391.47;;;17.35
19568;BMP280;9930;49.240;8.548;2023-04-24T00:29:51;99378.63;;;17.28
19568;BMP280;9930;49.240;8.548;2023-04-24T00:32:19;99394.06;;;17.34
19568;BMP280;9930;49.240;8.548;2023-04-24T00:34:50;99400.94;;;17.35
19568;BMP280;9930;49.240;8.548;2023-04-24T00:37:17;99398.38;;;17.29
19568;BMP280;9930;49.240;8.548;2023-04-24T00:39:47;99406.09;;;17.35
19568;BMP280;9930;49.240;8.548;2023-04-24T00:42:14;99394.97;;;17.28
19568;BMP280;9930;49.240;8.548;2023-04-24T00:44:44;99407.81;;;17.31
19568;BMP280;9930;49.240;8.548;2023-04-24T00:47:12;99393.28;;;17.21
19568;BMP280;9930;49.240;8.548;2023-04-24T00:49:40;99389.00;;;17.19
19568;BMP280;9930;49.240;8.548;2023-04-24T00:52:07;99401.00;;;17.21
19568;BMP280;9930;49.240;8.548;2023-04-24T00:54:35;99405.31;;;17.19
19568;BMP280;9930;49.240;8.548;2023-04-24T00:57:04;99414.72;;;17.26
19568;BMP280;9930;49.240;8.548;2023-04-24T00:59:31;99398.47;;;17.15
19568;BMP280;9930;49.240;8.548;2023-04-24T01:01:58;99400.16;;;17.21
19568;BMP280;9930;49.240;8.548;2023-04-24T01:04:24;99390.75;;;17.13
19568;BMP280;9930;49.240;8.548;2023-04-24T01:06:56;99383.88;;;17.12
19568;BMP280;9930;49.240;8.548;2023-04-24T01:09:25;99402.72;;;17.21
19568;BMP280;9930;49.240;8.548;2023-04-24T01:11:56;99401.88;;;17.22
19568;BMP280;9930;49.240;8.548;2023-04-24T01:14:22;99385.59;;;17.13
19568;BMP280;9930;49.240;8.548;2023-04-24T01:16:48;99389.03;;;17.15
19568;BMP280;9930;49.240;8.548;2023-04-24T01:19:16;99394.97;;;17.24
19568;BMP280;9930;49.240;8.548;2023-04-24T01:21:50;99396.69;;;17.23
19568;BMP280;9930;49.240;8.548;2023-04-24T01:24:16;99394.13;;;17.22
19568;BMP280;9930;49.240;8.548;2023-04-24T01:26:45;99386.44;;;17.15
19568;BMP280;9930;49.240;8.548;2023-04-24T01:29:16;99378.72;;;17.12
19568;BMP280;9930;49.240;8.548;2023-04-24T01:31:42;99380.47;;;17.10
19568;BMP280;9930;49.240;8.548;2023-04-24T01:34:08;99386.47;;;17.11
19568;BMP280;9930;49.240;8.548;2023-04-24T01:36:37;99386.47;;;17.11
19568;BMP280;9930;49.240;8.548;2023-04-24T01:39:03;99388.19;;;17.10
19568;BMP280;9930;49.240;8.548;2023-04-24T01:41:32;99390.75;;;17.12
19568;BMP280;9930;49.240;8.548;2023-04-24T01:43:58;99389.06;;;17.09
19568;BMP280;9930;49.240;8.548;2023-04-24T01:46:26;99388.16;;;17.13
19568;BMP280;9930;49.240;8.548;2023-04-24T01:48:52;99386.44;;;17.12
19568;BMP280;9930;49.240;8.548;2023-04-24T01:51:18;99369.31;;;17.05
19568;BMP280;9930;49.240;8.548;2023-04-24T01:53:47;99369.31;;;17.07
19568;BMP280;9930;49.240;8.548;2023-04-24T01:56:15;99359.88;;;17.07
19568;BMP280;9930;49.240;8.548;2023-04-24T01:58:41;99368.44;;;17.06
19568;BMP280;9930;49.240;8.548;2023-04-24T02:01:07;99380.44;;;17.13
19568;BMP280;9930;49.240;8.548;2023-04-24T02:03:35;99377.88;;;17.10
19568;BMP280;9930;49.240;8.548;2023-04-24T02:06:03;99377.03;;;17.10
19568;BMP280;9930;49.240;8.548;2023-04-24T02:08:31;99369.34;;;17.02
19568;BMP280;9930;49.240;8.548;2023-04-24T02:10:57;99379.63;;;17.07
19568;BMP280;9930;49.240;8.548;2023-04-24T02:13:26;99371.03;;;17.03
19568;BMP280;9930;49.240;8.548;2023-04-24T02:15:52;99373.63;;;17.00
19568;BMP280;9930;49.240;8.548;2023-04-24T02:18:18;99354.81;;;16.89
19568;BMP280;9930;49.240;8.548;2023-04-24T02:20:44;99358.22;;;16.91
19568;BMP280;9930;49.240;8.548;2023-04-24T02:23:10;99361.69;;;16.87
19568;BMP280;9930;49.240;8.548;2023-04-24T02:25:53;99366.00;;;16.85
19568;BMP280;9930;49.240;8.548;2023-04-24T02:28:19;99373.72;;;16.83
19568;BMP280;9930;49.240;8.548;2023-04-24T02:30:47;99353.16;;;16.74
19568;BMP280;9930;49.240;8.548;2023-04-24T02:33:18;99370.28;;;16.81
19568;BMP280;9930;49.240;8.548;2023-04-24T02:35:51;99373.72;;;16.82
19568;BMP280;9930;49.240;8.548;2023-04-24T02:38:17;99378.88;;;16.82
19568;BMP280;9930;49.240;8.548;2023-04-24T02:40:45;99354.88;;;16.74
19568;BMP280;9930;49.240;8.548;2023-04-24T02:43:15;99360.88;;;16.73
19568;BMP280;9930;49.240;8.548;2023-04-24T02:45:41;99373.75;;;16.76
19568;BMP280;9930;49.240;8.548;2023-04-24T02:48:11;99378.91;;;16.73
19568;BMP280;9930;49.240;8.548;2023-04-24T02:50:37;99390.06;;;16.70
19568;BMP280;9930;49.240;8.548;2023-04-24T02:53:03;99384.91;;;16.64
19568;BMP280;9930;49.240;8.548;2023-04-24T02:55:31;99382.34;;;16.63
19568;BMP280;9930;49.240;8.548;2023-04-24T02:57:57;99389.22;;;16.64
19568;BMP280;9930;49.240;8.548;2023-04-24T03:00:22;99389.22;;;16.67
19568;BMP280;9930;49.240;8.548;2023-04-24T03:02:48;99393.53;;;16.68
19568;BMP280;9930;49.240;8.548;2023-04-24T03:05:17;99400.34;;;16.75
19568;BMP280;9930;49.240;8.548;2023-04-24T03:07:44;99403.78;;;16.74
19568;BMP280;9930;49.240;8.548;2023-04-24T03:10:13;99408.09;;;16.75
19568;BMP280;9930;49.240;8.548;2023-04-24T03:12:40;99431.25;;;16.76
19568;BMP280;9930;49.240;8.548;2023-04-24T03:15:07;99440.69;;;16.76
19568;BMP280;9930;49.240;8.548;2023-04-24T03:17:35;99433.84;;;16.67
19568;BMP280;9930;49.240;8.548;2023-04-24T03:20:03;99438.16;;;16.65
19568;BMP280;9930;49.240;8.548;2023-04-24T03:22:30;99436.41;;;16.63
19568;BMP280;9930;49.240;8.548;2023-04-24T03:24:58;99425.28;;;16.48
19568;BMP280;9930;49.240;8.548;2023-04-24T03:27:23;99444.13;;;16.60
19568;BMP280;9930;49.240;8.548;2023-04-24T03:29:49;99426.13;;;16.53
19568;BMP280;9930;49.240;8.548;2023-04-24T03:32:19;99430.41;;;16.56
19568;BMP280;9930;49.240;8.548;2023-04-24T03:34:46;99428.72;;;16.50
19568;BMP280;9930;49.240;8.548;2023-04-24T03:37:15;99422.72;;;16.48
19568;BMP280;9930;49.240;8.548;2023-04-24T03:39:41;99437.28;;;16.52
19568;BMP280;9930;49.240;8.548;2023-04-24T03:42:10;99439.00;;;16.52
19568;BMP280;9930;49.240;8.548;2023-04-24T03:44:36;99445.00;;;16.49
19568;BMP280;9930;49.240;8.548;2023-04-24T03:47:04;99418.44;;;16.38
19568;BMP280;9930;49.240;8.548;2023-04-24T03:49:32;99436.44;;;16.43
19568;BMP280;9930;49.240;8.548;2023-04-24T03:51:59;99439.91;;;16.33
19568;BMP280;9930;49.240;8.548;2023-04-24T03:54:25;99444.19;;;16.29
19568;BMP280;9930;49.240;8.548;2023-04-24T03:56:53;99464.78;;;16.29
19568;BMP280;9930;49.240;8.548;2023-04-24T03:59:19;99466.50;;;16.24
19568;BMP280;9930;49.240;8.548;2023-04-24T04:01:47;99467.34;;;16.25
19568;BMP280;9930;49.240;8.548;2023-04-24T04:04:13;99465.63;;;16.22
19568;BMP280;9930;49.240;8.548;2023-04-24T04:06:43;99471.63;;;16.18
19568;BMP280;9930;49.240;8.548;2023-04-24T04:09:15;99465.63;;;16.10
19568;BMP280;9930;49.240;8.548;2023-04-24T04:11:40;99481.06;;;16.11
19568;BMP280;9930;49.240;8.548;2023-04-24T04:14:06;99487.06;;;16.06
19568;BMP280;9930;49.240;8.548;2023-04-24T04:16:32;99485.34;;;15.97
19568;BMP280;9930;49.240;8.548;2023-04-24T04:18:58;99484.47;;;15.91
19568;BMP280;9930;49.240;8.548;2023-04-24T04:21:24;99496.47;;;15.82
19568;BMP280;9930;49.240;8.548;2023-04-24T04:23:49;99496.47;;;15.84
19568;BMP280;9930;49.240;8.548;2023-04-24T04:26:18;99501.59;;;15.72
19568;BMP280;9930;49.240;8.548;2023-04-24T04:28:54;99514.44;;;15.73
19568;BMP280;9930;49.240;8.548;2023-04-24T04:31:20;99527.28;;;15.69
19568;BMP280;9930;49.240;8.548;2023-04-24T04:33:50;99532.41;;;15.66
19568;BMP280;9930;49.240;8.548;2023-04-24T04:36:17;99539.25;;;15.62
19568;BMP280;9930;49.240;8.548;2023-04-24T04:38:47;99537.53;;;15.55
19568;BMP280;9930;49.240;8.548;2023-04-24T04:41:15;99543.53;;;15.55
19568;BMP280;9930;49.240;8.548;2023-04-24T04:43:45;99545.22;;;15.52
19568;BMP280;9930;49.240;8.548;2023-04-24T04:46:14;99540.03;;;15.41
19568;BMP280;9930;49.240;8.548;2023-04-24T04:48:40;99539.19;;;15.39
19568;BMP280;9930;49.240;8.548;2023-04-24T04:51:08;99534.88;;;15.38
19568;BMP280;9930;49.240;8.548;2023-04-24T04:53:33;99534.88;;;15.37
19568;BMP280;9930;49.240;8.548;2023-04-24T04:55:59;99542.59;;;15.38
19568;BMP280;9930;49.240;8.548;2023-04-24T04:58:25;99552.03;;;15.44
19568;BMP280;9930;49.240;8.548;2023-04-24T05:00:50;99546.91;;;15.44
19568;BMP280;9930;49.240;8.548;2023-04-24T05:03:17;99537.47;;;15.41
19568;BMP280;9930;49.240;8.548;2023-04-24T05:05:47;99545.19;;;15.44
19568;BMP280;9930;49.240;8.548;2023-04-24T05:08:20;99558.03;;;15.43
19568;BMP280;9930;49.240;8.548;2023-04-24T05:10:46;99553.75;;;15.42
19568;BMP280;9930;49.240;8.548;2023-04-24T05:13:12;99573.47;;;15.50
19568;BMP280;9930;49.240;8.548;2023-04-24T05:15:38;99570.91;;;15.52
19568;BMP280;9930;49.240;8.548;2023-04-24T05:18:08;99546.91;;;15.48
19568;BMP280;9930;49.240;8.548;2023-04-24T05:20:34;99555.50;;;15.52
19568;BMP280;9930;49.240;8.548;2023-04-24T05:22:59;99566.69;;;15.59
19568;BMP280;9930;49.240;8.548;2023-04-24T05:25:27;99558.13;;;15.60
19568;BMP280;9930;49.240;8.548;2023-04-24T05:27:53;99570.13;;;15.67
19568;BMP280;9930;49.240;8.548;2023-04-24T05:30:21;99567.59;;;15.79
19568;BMP280;9930;49.240;8.548;2023-04-24T05:32:52;99583.03;;;15.83
19568;BMP280;9930;49.240;8.548;2023-04-24T05:35:20;99570.16;;;15.82
19568;BMP280;9930;49.240;8.548;2023-04-24T05:37:47;99575.34;;;15.90
19568;BMP280;9930;49.240;8.548;2023-04-24T05:40:15;99564.19;;;15.87
19568;BMP280;9930;49.240;8.548;2023-04-24T05:42:44;99588.22;;;16.05
19568;BMP280;9930;49.240;8.548;2023-04-24T05:45:10;99576.22;;;16.04
19568;BMP280;9930;49.240;8.548;2023-04-24T05:47:45;99580.53;;;16.11
19568;BMP280;9930;49.240;8.548;2023-04-24T05:50:21;99579.69;;;16.16
19568;BMP280;9930;49.240;8.548;2023-04-24T05:52:47;99590.84;;;16.29
19568;BMP280;9930;49.240;8.548;2023-04-24T05:55:19;99581.41;;;16.28
19568;BMP280;9930;49.240;8.548;2023-04-24T05:57:49;99599.44;;;16.39
19568;BMP280;9930;49.240;8.548;2023-04-24T06:00:20;99595.16;;;16.47
19568;BMP280;9930;49.240;8.548;2023-04-24T06:02:47;99597.72;;;16.51
19568;BMP280;9930;49.240;8.548;2023-04-24T06:05:15;99596.00;;;16.52
19568;BMP280;9930;49.240;8.548;2023-04-24T06:07:41;99604.63;;;16.66
19568;BMP280;9930;49.240;8.548;2023-04-24T06:10:07;99605.50;;;16.73
19568;BMP280;9930;49.240;8.548;2023-04-24T06:12:38;99604.63;;;16.83
19568;BMP280;9930;49.240;8.548;2023-04-24T06:15:07;99608.91;;;16.86
19568;BMP280;9930;49.240;8.548;2023-04-24T06:17:35;99608.91;;;16.86
19568;BMP280;9930;49.240;8.548;2023-04-24T06:20:07;99614.94;;;16.84
19568;BMP280;9930;49.240;8.548;2023-04-24T06:22:36;99613.22;;;16.85
19568;BMP280;9930;49.240;8.548;2023-04-24T06:25:02;99605.47;;;16.91
19568;BMP280;9930;49.240;8.548;2023-04-24T06:27:30;99607.19;;;16.92
19568;BMP280;9930;49.240;8.548;2023-04-24T06:29:56;99620.91;;;17.05
19568;BMP280;9930;49.240;8.548;2023-04-24T06:32:26;99626.06;;;17.11
19568;BMP280;9930;49.240;8.548;2023-04-24T06:34:52;99623.47;;;17.12
19568;BMP280;9930;49.240;8.548;2023-04-24T06:37:25;99635.50;;;17.20
19568;BMP280;9930;49.240;8.548;2023-04-24T06:39:53;99645.78;;;17.30
19568;BMP280;9930;49.240;8.548;2023-04-24T06:42:19;99639.75;;;17.31
19568;BMP280;9930;49.240;8.548;2023-04-24T06:44:46;99640.59;;;17.44
19568;BMP280;9930;49.240;8.548;2023-04-24T06:47:16;99633.72;;;17.41
19568;BMP280;9930;49.240;8.548;2023-04-24T06:49:42;99641.44;;;17.49
19568;BMP280;9930;49.240;8.548;2023-04-24T06:52:08;99643.16;;;17.53
19568;BMP280;9930;49.240;8.548;2023-04-24T06:54:34;99648.28;;;17.62
19568;BMP280;9930;49.240;8.548;2023-04-24T06:57:00;99652.59;;;17.69
19568;BMP280;9930;49.240;8.548;2023-04-24T06:59:27;99643.97;;;17.70
19568;BMP280;9930;49.240;8.548;2023-04-24T07:01:53;99648.28;;;17.73
19568;BMP280;9930;49.240;8.548;2023-04-24T07:04:21;99648.25;;;17.77
19568;BMP280;9930;49.240;8.548;2023-04-24T07:06:50;99653.41;;;17.76
19568;BMP280;9930;49.240;8.548;2023-04-24T07:09:22;99646.56;;;17.70
19568;BMP280;9930;49.240;8.548;2023-04-24T07:11:47;99650.00;;;17.65
19568;BMP280;9930;49.240;8.548;2023-04-24T07:14:14;99637.97;;;17.56
19568;BMP280;9930;49.240;8.548;2023-04-24T07:16:44;99641.47;;;17.34
19568;BMP280;9930;49.240;8.548;2023-04-24T07:19:14;99673.25;;;17.33
19568;BMP280;9930;49.240;8.548;2023-04-24T07:21:40;99681.88;;;17.16
19568;BMP280;9930;49.240;8.548;2023-04-24T07:24:08;99682.75;;;17.08
19568;BMP280;9930;49.240;8.548;2023-04-24T07:26:38;99682.75;;;16.91
19568;BMP280;9930;49.240;8.548;2023-04-24T07:29:05;99678.44;;;16.86
19568;BMP280;9930;49.240;8.548;2023-04-24T07:31:31;99689.59;;;16.74
19568;BMP280;9930;49.240;8.548;2023-04-24T07:34:02;99701.63;;;16.73
19568;BMP280;9930;49.240;8.548;2023-04-24T07:36:27;99702.47;;;16.66
19568;BMP280;9930;49.240;8.548;2023-04-24T07:38:54;99689.53;;;16.52
19568;BMP280;9930;49.240;8.548;2023-04-24T07:41:23;99693.81;;;16.52
19568;BMP280;9930;49.240;8.548;2023-04-24T07:43:53;99695.53;;;16.44
19568;BMP280;9930;49.240;8.548;2023-04-24T07:46:22;99705.84;;;16.50
19568;BMP280;9930;49.240;8.548;2023-04-24T07:48:49;99701.53;;;16.52
19568;BMP280;9930;49.240;8.548;2023-04-24T07:51:17;99703.31;;;16.67
19568;BMP280;9930;49.240;8.548;2023-04-24T07:53:48;99722.22;;;16.92
19568;BMP280;9930;49.240;8.548;2023-04-24T07:56:19;99719.66;;;17.05
19568;BMP280;9930;49.240;8.548;2023-04-24T07:58:46;99714.50;;;17.04
19568;BMP280;9930;49.240;8.548;2023-04-24T08:01:12;99717.09;;;17.08
19568;BMP280;9930;49.240;8.548;2023-04-24T08:03:37;99730.84;;;17.10
19568;BMP280;9930;49.240;8.548;2023-04-24T08:06:03;99721.38;;;17.06
19568;BMP280;9930;49.240;8.548;2023-04-24T08:08:31;99737.69;;;17.13
19568;BMP280;9930;49.240;8.548;2023-04-24T08:11:01;99720.53;;;17.18
19568;BMP280;9930;49.240;8.548;2023-04-24T08:13:27;99719.66;;;17.31
19568;BMP280;9930;49.240;8.548;2023-04-24T08:15:53;99732.50;;;17.62
19568;BMP280;9930;49.240;8.548;2023-04-24T08:18:22;99729.91;;;17.85
19568;BMP280;9930;49.240;8.548;2023-04-24T08:20:47;99729.84;;;18.04
19568;BMP280;9930;49.240;8.548;2023-04-24T08:23:16;99737.53;;;18.20
19568;BMP280;9930;49.240;8.548;2023-04-24T08:25:42;99725.47;;;18.23
19568;BMP280;9930;49.240;8.548;2023-04-24T08:28:11;99739.19;;;18.31
19568;BMP280;9930;49.240;8.548;2023-04-24T08:30:37;99748.66;;;18.32
19568;BMP280;9930;49.240;8.548;2023-04-24T08:33:03;99745.22;;;18.30
19568;BMP280;9930;49.240;8.548;2023-04-24T08:35:31;99737.53;;;18.21
19568;BMP280;9930;49.240;8.548;2023-04-24T08:37:59;99746.97;;;18.22
19568;BMP280;9930;49.240;8.548;2023-04-24T08:40:28;99741.84;;;18.15
19568;BMP280;9930;49.240;8.548;2023-04-24T08:42:56;99755.59;;;18.17
19568;BMP280;9930;49.240;8.548;2023-04-24T08:45:23;99750.44;;;18.15
19568;BMP280;9930;49.240;8.548;2023-04-24T08:47:50;99749.56;;;18.19
19568;BMP280;9930;49.240;8.548;2023-04-24T08:50:17;99748.75;;;18.14
19568;BMP280;9930;49.240;8.548;2023-04-24T08:52:47;99759.94;;;18.10
19568;BMP280;9930;49.240;8.548;2023-04-24T08:55:15;99750.50;;;18.01
19568;BMP280;9930;49.240;8.548;2023-04-24T08:57:50;99751.31;;;18.16
19568;BMP280;9930;49.240;8.548;2023-04-24T09:00:17;99753.88;;;18.20
19568;BMP280;9930;49.240;8.548;2023-04-24T09:02:49;99760.66;;;18.41
19568;BMP280;9930;49.240;8.548;2023-04-24T09:05:18;99766.69;;;18.44
19568;BMP280;9930;49.240;8.548;2023-04-24T09:07:53;99781.28;;;18.52
19568;BMP280;9930;49.240;8.548;2023-04-24T09:10:22;99778.72;;;18.47
19568;BMP280;9930;49.240;8.548;2023-04-24T09:12:51;99779.63;;;18.35
19568;BMP280;9930;49.240;8.548;2023-04-24T09:15:19;99783.94;;;18.30
19568;BMP280;9930;49.240;8.548;2023-04-24T09:17:47;99789.16;;;18.18
19568;BMP280;9930;49.240;8.548;2023-04-24T09:20:16;99782.31;;;18.02
19568;BMP280;9930;49.240;8.548;2023-04-24T09:22:44;99790.94;;;17.98
19568;BMP280;9930;49.240;8.548;2023-04-24T09:25:10;99776.34;;;17.88
19568;BMP280;9930;49.240;8.548;2023-04-24T09:27:46;99775.47;;;17.87
19568;BMP280;9930;49.240;8.548;2023-04-24T09:30:13;99801.28;;;17.89
19568;BMP280;9930;49.240;8.548;2023-04-24T09:32:49;99795.25;;;17.90
19568;BMP280;9930;49.240;8.548;2023-04-24T09:35:19;99797.84;;;17.85
19568;BMP280;9930;49.240;8.548;2023-04-24T09:37:47;99807.28;;;17.94
19568;BMP280;9930;49.240;8.548;2023-04-24T09:40:18;99806.44;;;17.87
19568;BMP280;9930;49.240;8.548;2023-04-24T09:42:53;99794.41;;;17.72
19568;BMP280;9930;49.240;8.548;2023-04-24T09:45:27;99812.47;;;17.71
19568;BMP280;9930;49.240;8.548;2023-04-24T09:47:53;99805.56;;;17.65
19568;BMP280;9930;49.240;8.548;2023-04-24T09:50:24;99815.06;;;17.66
19568;BMP280;9930;49.240;8.548;2023-04-24T09:53:04;99818.50;;;17.70
19568;BMP280;9930;49.240;8.548;2023-04-24T09:55:31;99821.06;;;17.84
19568;BMP280;9930;49.240;8.548;2023-04-24T09:58:01;99827.06;;;17.93
19568;BMP280;9930;49.240;8.548;2023-04-24T10:00:32;99817.59;;;17.94
19568;BMP280;9930;49.240;8.548;2023-04-24T10:03:05;99807.28;;;17.97
19568;BMP280;9930;49.240;8.548;2023-04-24T10:05:36;99828.75;;;18.09
19568;BMP280;9930;49.240;8.548;2023-04-24T10:08:11;99822.72;;;18.10
19568;BMP280;9930;49.240;8.548;2023-04-24T10:10:42;99834.78;;;18.07
19568;BMP280;9930;49.240;8.548;2023-04-24T10:13:14;99831.34;;;18.03
19568;BMP280;9930;49.240;8.548;2023-04-24T10:15:42;99833.06;;;18.00
19568;BMP280;9930;49.240;8.548;2023-04-24T10:18:08;99834.78;;;17.98
19568;BMP280;9930;49.240;8.548;2023-04-24T10:20:42;99844.25;;;17.93
19568;BMP280;9930;49.240;8.548;2023-04-24T10:23:11;99844.28;;;17.87
19568;BMP280;9930;49.240;8.548;2023-04-24T10:25:37;99830.53;;;17.68
19568;BMP280;9930;49.240;8.548;2023-04-24T10:28:07;99846.81;;;17.59
19568;BMP280;9930;49.240;8.548;2023-04-24T10:30:34;99857.13;;;17.53
19568;BMP280;9930;49.240;8.548;2023-04-24T10:33:02;99879.50;;;17.56
19568;BMP280;9930;49.240;8.548;2023-04-24T10:35:41;99894.09;;;17.46
19568;BMP280;9930;49.240;8.548;2023-04-24T10:38:29;99884.63;;;17.36
19568;BMP280;9930;49.240;8.548;2023-04-24T10:41:17;99893.19;;;17.30
19568;BMP280;9930;49.240;8.548;2023-04-24T10:44:04;99875.16;;;17.27
19568;BMP280;9930;49.240;8.548;2023-04-24T10:46:31;99889.78;;;17.37
19568;BMP280;9930;49.240;8.548;2023-04-24T10:49:03;99882.06;;;17.49
19568;BMP280;9930;49.240;8.548;2023-04-24T10:51:50;99868.31;;;17.61
19568;BMP280;9930;49.240;8.548;2023-04-24T10:54:50;99870.06;;;17.77
19568;BMP280;9930;49.240;8.548;2023-04-24T11:02:45;99855.38;;;18.28
19568;BMP280;9930;49.240;8.548;2023-04-24T11:05:19;99870.81;;;18.43
19568;BMP280;9930;49.240;8.548;2023-04-24T11:08:22;99877.66;;;18.55
19568;BMP280;9930;49.240;8.548;2023-04-24T11:11:21;99870.75;;;18.60
19568;BMP280;9930;49.240;8.548;2023-04-24T11:16:43;99873.34;;;18.72
19568;BMP280;9930;49.240;8.548;2023-04-24T11:19:25;99882.78;;;18.76
19568;BMP280;9930;49.240;8.548;2023-04-24T11:22:16;99887.09;;;18.77
19568;BMP280;9930;49.240;8.548;2023-04-24T11:24:53;99880.22;;;18.70
19568;BMP280;9930;49.240;8.548;2023-04-24T11:27:22;99894.00;;;18.71
19568;BMP280;9930;49.240;8.548;2023-04-24T11:29:59;99883.69;;;18.60
19568;BMP280;9930;49.240;8.548;2023-04-24T11:37:44;99905.22;;;18.58
19568;BMP280;9930;49.240;8.548;2023-04-24T11:40:14;99894.88;;;18.58
19568;BMP280;9930;49.240;8.548;2023-04-24T11:42:49;99895.72;;;18.60
19568;BMP280;9930;49.240;8.548;2023-04-24T11:45:26;99904.34;;;18.72
19568;BMP280;9930;49.240;8.548;2023-04-24T11:47:53;99894.84;;;18.77
19568;BMP280;9930;49.240;8.548;2023-04-24T11:50:22;99903.38;;;18.96
19568;BMP280;9930;49.240;8.548;2023-04-24T11:52:50;99882.69;;;18.98
19568;BMP280;9930;49.240;8.548;2023-04-24T11:57:52;99899.03;;;19.04
19568;BMP280;9930;49.240;8.548;2023-04-24T12:00:21;99894.75;;;19.00
19568;BMP280;9930;49.240;8.548;2023-04-24T12:02:50;99905.91;;;19.08
19568;BMP280;9930;49.240;8.548;2023-04-24T12:05:28;99895.56;;;19.05
19568;BMP280;9930;49.240;8.548;2023-04-24T12:07:56;99903.28;;;19.15
19568;BMP280;9930;49.240;8.548;2023-04-24T12:10:29;99911.00;;;19.21
19568;BMP280;9930;49.240;8.548;2023-04-24T12:12:57;99899.81;;;19.16
19568;BMP280;9930;49.240;8.548;2023-04-24T12:15:24;99908.41;;;19.24
19568;BMP280;9930;49.240;8.548;2023-04-24T12:17:52;99896.31;;;19.27
19568;BMP280;9930;49.240;8.548;2023-04-24T12:20:27;99896.28;;;19.35
19568;BMP280;9930;49.240;8.548;2023-04-24T12:22:56;99909.97;;;19.48
19568;BMP280;9930;49.240;8.548;2023-04-24T12:25:31;99902.22;;;19.49
19568;BMP280;9930;49.240;8.548;2023-04-24T12:30:35;99912.53;;;19.55
19568;BMP280;9930;49.240;8.548;2023-04-24T12:33:02;99902.22;;;19.54
19568;BMP280;9930;49.240;8.548;2023-04-24T12:35:33;99911.66;;;19.59
19568;BMP280;9930;49.240;8.548;2023-04-24T12:38:16;99911.66;;;19.58
19568;BMP280;9930;49.240;8.548;2023-04-24T12:40:44;99909.09;;;19.56
19568;BMP280;9930;49.240;8.548;2023-04-24T12:43:33;99916.00;;;19.54
19568;BMP280;9930;49.240;8.548;2023-04-24T12:45:59;99902.22;;;19.54
19568;BMP280;9930;49.240;8.548;2023-04-24T12:48:29;99891.00;;;19.53
19568;BMP280;9930;49.240;8.548;2023-04-24T12:50:59;99909.03;;;19.64
19568;BMP280;9930;49.240;8.548;2023-04-24T12:53:31;99893.53;;;19.59
19568;BMP280;9930;49.240;8.548;2023-04-24T12:55:57;99902.13;;;19.66
19568;BMP280;9930;49.240;8.548;2023-04-24T12:58:22;99891.78;;;19.66
19568;BMP280;9930;49.240;8.548;2023-04-24T13:00:51;99902.91;;;19.76
19568;BMP280;9930;49.240;8.548;2023-04-24T13:03:19;99904.63;;;19.75
19568;BMP280;9930;49.240;8.548;2023-04-24T13:05:49;99902.03;;;19.78
19568;BMP280;9930;49.240;8.548;2023-04-24T13:08:15;99888.25;;;19.75
19568;BMP280;9930;49.240;8.548;2023-04-24T13:10:41;99891.69;;;19.77
19568;BMP280;9930;49.240;8.548;2023-04-24T13:13:09;99898.53;;;19.85
19568;BMP280;9930;49.240;8.548;2023-04-24T13:15:35;99897.63;;;19.88
19568;BMP280;9930;49.240;8.548;2023-04-24T13:18:01;99882.94;;;19.91
19568;BMP280;9930;49.240;8.548;2023-04-24T13:20:27;99882.03;;;19.95
19568;BMP280;9930;49.240;8.548;2023-04-24T13:22:52;99880.22;;;20.07
19568;BMP280;9930;49.240;8.548;2023-04-24T13:25:21;99877.53;;;20.14
19568;BMP280;9930;49.240;8.548;2023-04-24T13:27:51;99882.66;;;20.22
19568;BMP280;9930;49.240;8.548;2023-04-24T13:30:19;99871.34;;;20.29
19568;BMP280;9930;49.240;8.548;2023-04-24T13:32:48;99879.06;;;20.33
19568;BMP280;9930;49.240;8.548;2023-04-24T13:35:23;99880.78;;;20.39
19568;BMP280;9930;49.240;8.548;2023-04-24T13:37:49;99879.91;;;20.40
19568;BMP280;9930;49.240;8.548;2023-04-24T13:40:16;99871.31;;;20.33
19568;BMP280;9930;49.240;8.548;2023-04-24T13:42:45;99878.22;;;20.31
19568;BMP280;9930;49.240;8.548;2023-04-24T13:45:15;99879.94;;;20.34
19568;BMP280;9930;49.240;8.548;2023-04-24T13:47:45;99884.34;;;20.24
19568;BMP280;9930;49.240;8.548;2023-04-24T13:50:14;99887.81;;;20.23
19568;BMP280;9930;49.240;8.548;2023-04-24T13:52:41;99883.56;;;20.18
19568;BMP280;9930;49.240;8.548;2023-04-24T13:55:07;99884.38;;;20.21
19568;BMP280;9930;49.240;8.548;2023-04-24T13:57:33;99878.41;;;20.15
19568;BMP280;9930;49.240;8.548;2023-04-24T13:59:59;99881.88;;;20.12
19568;BMP280;9930;49.240;8.548;2023-04-24T14:02:38;99878.50;;;20.05
19568;BMP280;9930;49.240;8.548;2023-04-24T14:05:06;99884.53;;;20.06
19568;BMP280;9930;49.240;8.548;2023-04-24T14:07:32;99881.13;;;19.99
19568;BMP280;9930;49.240;8.548;2023-04-24T14:10:02;99883.84;;;19.86
19568;BMP280;9930;49.240;8.548;2023-04-24T14:12:28;99887.31;;;19.85
19568;BMP280;9930;49.240;8.548;2023-04-24T14:14:59;99883.03;;;19.79
19568;BMP280;9930;49.240;8.548;2023-04-24T14:17:27;99878.72;;;19.78
19568;BMP280;9930;49.240;8.548;2023-04-24T14:19:56;99891.63;;;19.86
19568;BMP280;9930;49.240;8.548;2023-04-24T14:22:22;99876.94;;;19.85
19568;BMP280;9930;49.240;8.548;2023-04-24T14:24:48;99876.06;;;19.87
19568;BMP280;9930;49.240;8.548;2023-04-24T14:27:17;99872.56;;;19.93
19568;BMP280;9930;49.240;8.548;2023-04-24T14:29:43;99878.63;;;19.90
19568;BMP280;9930;49.240;8.548;2023-04-24T14:32:12;99880.34;;;19.91
19568;BMP280;9930;49.240;8.548;2023-04-24T14:34:43;99885.53;;;19.90
19568;BMP280;9930;49.240;8.548;2023-04-24T14:37:08;99882.09;;;19.89
19568;BMP280;9930;49.240;8.548;2023-04-24T14:39:34;99870.91;;;19.84
19568;BMP280;9930;49.240;8.548;2023-04-24T14:42:00;99871.81;;;19.82
19568;BMP280;9930;49.240;8.548;2023-04-24T14:44:27;99877.03;;;19.76
19568;BMP280;9930;49.240;8.548;2023-04-24T14:46:55;99885.66;;;19.75
19568;BMP280;9930;49.240;8.548;2023-04-24T14:49:25;99888.31;;;19.68